Terminal Aerodrome Forecast
Issued by NWS

Home | Current Version | Previous Version | Text Only | Print | Product List | Glossary On
Versions: 1 2 3 4 5 6 7 8 9 10 11 12 13 14 15 16 17 18 19 20 21 22 23 24 25 26 27 28 29
847
FTUS44 KFWD 032110 AAC
TAFDAL
TAF AMD
KDAL 032110Z 0321/0418 07009KT P6SM OVC008
      TEMPO 0321/0324 2SM -DZ BR OVC005
     FM040000 04009KT 4SM BR OVC007
     FM040600 36008KT 3SM -DZ BR OVC004=

USA.gov is the U.S. government's official web portal to all federal, state and local government web resources and services.